sensor_id;sensor_type;location;lat;lon;timestamp;pressure;altitude;pressure_sealevel;temperature;humidity
51715;BME280;39115;59.332;18.034;2024-03-02T00:01:31;101166.19;;;4.89;67.93
51715;BME280;39115;59.332;18.034;2024-03-02T00:03:51;101173.19;;;4.90;67.80
51715;BME280;39115;59.332;18.034;2024-03-02T00:06:12;101176.75;;;4.89;67.89
51715;BME280;39115;59.332;18.034;2024-03-02T00:08:33;101167.91;;;4.90;67.52
51715;BME280;39115;59.332;18.034;2024-03-02T00:11:00;101175.81;;;4.90;67.78
51715;BME280;39115;59.332;18.034;2024-03-02T00:13:23;101179.41;;;4.89;68.05
51715;BME280;39115;59.332;18.034;2024-03-02T00:15:48;101174.13;;;4.89;67.46
51715;BME280;39115;59.332;18.034;2024-03-02T00:18:12;101176.75;;;4.89;67.71
51715;BME280;39115;59.332;18.034;2024-03-02T00:20:33;101166.28;;;4.87;68.12
51715;BME280;39115;59.332;18.034;2024-03-02T00:23:04;101176.75;;;4.89;68.13
51715;BME280;39115;59.332;18.034;2024-03-02T00:25:25;101176.84;;;4.87;67.58
51715;BME280;39115;59.332;18.034;2024-03-02T00:27:49;101180.31;;;4.88;67.67
51715;BME280;39115;59.332;18.034;2024-03-02T00:33:13;101182.22;;;4.86;67.96
51715;BME280;39115;59.332;18.034;2024-03-02T00:35:33;101180.44;;;4.86;68.16
51715;BME280;39115;59.332;18.034;2024-03-02T00:37:54;101176.06;;;4.85;67.75
51715;BME280;39115;59.332;18.034;2024-03-02T00:40:15;101184.88;;;4.86;67.74
51715;BME280;39115;59.332;18.034;2024-03-02T00:42:36;101185.78;;;4.85;67.72
51715;BME280;39115;59.332;18.034;2024-03-02T00:44:57;101189.28;;;4.85;68.07
51715;BME280;39115;59.332;18.034;2024-03-02T00:47:17;101184.94;;;4.84;67.95
51715;BME280;39115;59.332;18.034;2024-03-02T00:49:38;101181.44;;;4.84;67.52
51715;BME280;39115;59.332;18.034;2024-03-02T00:51:59;101177.00;;;4.84;68.08
51715;BME280;39115;59.332;18.034;2024-03-02T00:54:26;101179.75;;;4.83;67.87
51715;BME280;39115;59.332;18.034;2024-03-02T00:56:49;101177.09;;;4.83;68.19
51715;BME280;39115;59.332;18.034;2024-03-02T00:59:10;101179.75;;;4.83;68.09
51715;BME280;39115;59.332;18.034;2024-03-02T01:01:31;101172.75;;;4.82;67.78
51715;BME280;39115;59.332;18.034;2024-03-02T01:03:52;101174.56;;;4.81;67.54
51715;BME280;39115;59.332;18.034;2024-03-02T01:06:13;101178.97;;;4.81;67.95
51715;BME280;39115;59.332;18.034;2024-03-02T01:08:35;101181.63;;;4.81;67.99
51715;BME280;39115;59.332;18.034;2024-03-02T01:10:56;101183.41;;;4.80;67.68
51715;BME280;39115;59.332;18.034;2024-03-02T01:13:16;101184.34;;;4.79;68.14
51715;BME280;39115;59.332;18.034;2024-03-02T01:15:37;101175.56;;;4.79;68.02
51715;BME280;39115;59.332;18.034;2024-03-02T01:17:58;101177.38;;;4.78;68.03
51715;BME280;39115;59.332;18.034;2024-03-02T01:20:19;101180.84;;;4.79;67.46
51715;BME280;39115;59.332;18.034;2024-03-02T01:22:40;101187.09;;;4.78;67.83
51715;BME280;39115;59.332;18.034;2024-03-02T01:25:00;101199.41;;;4.77;68.07
51715;BME280;39115;59.332;18.034;2024-03-02T01:27:21;101202.03;;;4.77;68.04
51715;BME280;39115;59.332;18.034;2024-03-02T01:29:41;101190.66;;;4.77;67.61
51715;BME280;39115;59.332;18.034;2024-03-02T01:32:02;101203.84;;;4.77;67.93
51715;BME280;39115;59.332;18.034;2024-03-02T01:34:23;101203.84;;;4.77;67.86
51715;BME280;39115;59.332;18.034;2024-03-02T01:36:43;101198.63;;;4.75;67.66
51715;BME280;39115;59.332;18.034;2024-03-02T01:39:04;101193.34;;;4.75;67.52
51715;BME280;39115;59.332;18.034;2024-03-02T01:41:29;101199.50;;;4.75;67.52
51715;BME280;39115;59.332;18.034;2024-03-02T01:43:50;101192.50;;;4.74;68.02
51715;BME280;39115;59.332;18.034;2024-03-02T01:46:10;101194.31;;;4.74;67.72
51715;BME280;39115;59.332;18.034;2024-03-02T01:48:31;101195.25;;;4.73;67.82
51715;BME280;39115;59.332;18.034;2024-03-02T01:50:53;101191.75;;;4.72;67.78
51715;BME280;39115;59.332;18.034;2024-03-02T01:53:13;101195.25;;;4.73;67.88
51715;BME280;39115;59.332;18.034;2024-03-02T01:55:34;101190.03;;;4.71;68.05
51715;BME280;39115;59.332;18.034;2024-03-02T01:57:55;101188.38;;;4.70;67.65
51715;BME280;39115;59.332;18.034;2024-03-02T02:00:15;101182.13;;;4.71;68.12
51715;BME280;39115;59.332;18.034;2024-03-02T02:02:36;101176.94;;;4.70;67.38
51715;BME280;39115;59.332;18.034;2024-03-02T02:04:57;101183.09;;;4.70;67.75
51715;BME280;39115;59.332;18.034;2024-03-02T02:07:17;101189.28;;;4.69;67.99
51715;BME280;39115;59.332;18.034;2024-03-02T02:09:38;101180.50;;;4.69;67.77
51715;BME280;39115;59.332;18.034;2024-03-02T02:11:59;101187.59;;;4.68;67.83
51715;BME280;39115;59.332;18.034;2024-03-02T02:14:19;101186.72;;;4.68;67.51
51715;BME280;39115;59.332;18.034;2024-03-02T02:16:40;101182.31;;;4.68;67.87
51715;BME280;39115;59.332;18.034;2024-03-02T02:19:00;101180.59;;;4.67;68.14
51715;BME280;39115;59.332;18.034;2024-03-02T02:21:24;101182.38;;;4.67;67.55
51715;BME280;39115;59.332;18.034;2024-03-02T02:23:45;101179.84;;;4.65;67.55
51715;BME280;39115;59.332;18.034;2024-03-02T02:26:08;101181.63;;;4.65;67.67
51715;BME280;39115;59.332;18.034;2024-03-02T02:28:29;101187.75;;;4.65;67.67
51715;BME280;39115;59.332;18.034;2024-03-02T02:30:50;101186.91;;;4.65;67.46
51715;BME280;39115;59.332;18.034;2024-03-02T02:33:10;101183.41;;;4.64;67.59
51715;BME280;39115;59.332;18.034;2024-03-02T02:35:31;101185.22;;;4.64;67.47
51715;BME280;39115;59.332;18.034;2024-03-02T02:37:53;101186.97;;;4.63;67.69
51715;BME280;39115;59.332;18.034;2024-03-02T02:40:15;101189.72;;;4.62;67.58
51715;BME280;39115;59.332;18.034;2024-03-02T02:42:35;101177.44;;;4.61;67.81
51715;BME280;39115;59.332;18.034;2024-03-02T02:44:56;101185.31;;;4.62;67.88
51715;BME280;39115;59.332;18.034;2024-03-02T02:47:16;101181.03;;;4.59;68.16
51715;BME280;39115;59.332;18.034;2024-03-02T02:49:37;101183.66;;;4.59;67.68
51715;BME280;39115;59.332;18.034;2024-03-02T02:51:57;101186.28;;;4.59;67.43
51715;BME280;39115;59.332;18.034;2024-03-02T02:54:18;101181.88;;;4.60;68.24
51715;BME280;39115;59.332;18.034;2024-03-02T02:56:39;101176.72;;;4.58;67.80
51715;BME280;39115;59.332;18.034;2024-03-02T02:58:59;101182.91;;;4.57;68.23
51715;BME280;39115;59.332;18.034;2024-03-02T03:01:20;101182.06;;;4.57;67.58
51715;BME280;39115;59.332;18.034;2024-03-02T03:03:40;101177.66;;;4.57;68.08
51715;BME280;39115;59.332;18.034;2024-03-02T03:06:01;101169.78;;;4.56;67.54
51715;BME280;39115;59.332;18.034;2024-03-02T03:08:22;101181.22;;;4.56;67.74
51715;BME280;39115;59.332;18.034;2024-03-02T03:10:43;101179.50;;;4.55;67.60
51715;BME280;39115;59.332;18.034;2024-03-02T03:13:04;101185.63;;;4.56;67.94
51715;BME280;39115;59.332;18.034;2024-03-02T03:15:28;101182.25;;;4.54;68.04
51715;BME280;39115;59.332;18.034;2024-03-02T03:17:48;101179.59;;;4.54;67.63
51715;BME280;39115;59.332;18.034;2024-03-02T03:20:09;101175.25;;;4.53;67.94
51715;BME280;39115;59.332;18.034;2024-03-02T03:22:30;101177.91;;;4.53;68.18
51715;BME280;39115;59.332;18.034;2024-03-02T03:24:52;101169.22;;;4.51;68.01
51715;BME280;39115;59.332;18.034;2024-03-02T03:27:13;101176.19;;;4.52;67.60
51715;BME280;39115;59.332;18.034;2024-03-02T03:29:33;101173.66;;;4.50;68.15
51715;BME280;39115;59.332;18.034;2024-03-02T03:31:53;101178.91;;;4.50;67.76
51715;BME280;39115;59.332;18.034;2024-03-02T03:34:14;101176.28;;;4.50;67.62
51715;BME280;39115;59.332;18.034;2024-03-02T03:36:36;101172.78;;;4.50;67.77
51715;BME280;39115;59.332;18.034;2024-03-02T03:38:57;101177.28;;;4.48;67.74
51715;BME280;39115;59.332;18.034;2024-03-02T03:41:17;101183.41;;;4.48;68.02
51715;BME280;39115;59.332;18.034;2024-03-02T03:43:38;101189.63;;;4.47;67.88
51715;BME280;39115;59.332;18.034;2024-03-02T03:45:58;101178.25;;;4.47;68.05
51715;BME280;39115;59.332;18.034;2024-03-02T03:48:19;101186.16;;;4.47;68.04
51715;BME280;39115;59.332;18.034;2024-03-02T03:50:39;101192.34;;;4.46;67.43
51715;BME280;39115;59.332;18.034;2024-03-02T03:53:01;101195.00;;;4.46;67.52
51715;BME280;39115;59.332;18.034;2024-03-02T03:55:21;101194.13;;;4.45;67.69
51715;BME280;39115;59.332;18.034;2024-03-02T03:57:41;101196.75;;;4.45;67.69
51715;BME280;39115;59.332;18.034;2024-03-02T04:00:03;101200.31;;;4.44;68.09
51715;BME280;39115;59.332;18.034;2024-03-02T04:02:24;101197.78;;;4.42;68.00
51715;BME280;39115;59.332;18.034;2024-03-02T04:04:45;101200.41;;;4.42;68.07
51715;BME280;39115;59.332;18.034;2024-03-02T04:07:06;101201.28;;;4.43;67.77
51715;BME280;39115;59.332;18.034;2024-03-02T04:09:27;101193.44;;;4.41;67.95
51715;BME280;39115;59.332;18.034;2024-03-02T04:11:47;101192.59;;;4.41;68.00
51715;BME280;39115;59.332;18.034;2024-03-02T04:14:08;101189.09;;;4.40;67.66
51715;BME280;39115;59.332;18.034;2024-03-02T04:16:29;101190.91;;;4.40;67.41
51715;BME280;39115;59.332;18.034;2024-03-02T04:18:50;101180.69;;;4.34;67.92
51715;BME280;39115;59.332;18.034;2024-03-02T04:21:11;101195.41;;;4.38;68.09
51715;BME280;39115;59.332;18.034;2024-03-02T04:23:31;101191.00;;;4.38;67.70
51715;BME280;39115;59.332;18.034;2024-03-02T04:25:52;101196.25;;;4.38;67.66
51715;BME280;39115;59.332;18.034;2024-03-02T04:28:13;101198.13;;;4.36;67.46
51715;BME280;39115;59.332;18.034;2024-03-02T04:30:33;101200.75;;;4.36;67.78
51715;BME280;39115;59.332;18.034;2024-03-02T04:32:54;101203.50;;;4.35;68.01
51715;BME280;39115;59.332;18.034;2024-03-02T04:35:14;101209.59;;;4.35;67.94
51715;BME280;39115;59.332;18.034;2024-03-02T04:37:35;101207.88;;;4.34;67.68
51715;BME280;39115;59.332;18.034;2024-03-02T04:39:55;101205.25;;;4.34;68.10
51715;BME280;39115;59.332;18.034;2024-03-02T04:42:16;101207.97;;;4.33;67.98
51715;BME280;39115;59.332;18.034;2024-03-02T04:44:36;101204.47;;;4.32;67.61
51715;BME280;39115;59.332;18.034;2024-03-02T04:46:58;101207.97;;;4.33;68.07
51715;BME280;39115;59.332;18.034;2024-03-02T04:49:19;101207.22;;;4.31;68.06
51715;BME280;39115;59.332;18.034;2024-03-02T04:51:39;101213.34;;;4.31;68.03
51715;BME280;39115;59.332;18.034;2024-03-02T04:54:00;101212.47;;;4.31;67.54
51715;BME280;39115;59.332;18.034;2024-03-02T04:56:20;101208.13;;;4.30;67.72
51715;BME280;39115;59.332;18.034;2024-03-02T04:58:47;101212.66;;;4.27;67.63
51715;BME280;39115;59.332;18.034;2024-03-02T05:01:07;101207.38;;;4.27;67.47
51715;BME280;39115;59.332;18.034;2024-03-02T05:03:28;101210.03;;;4.27;67.66
51715;BME280;39115;59.332;18.034;2024-03-02T05:05:48;101217.16;;;4.25;67.88
51715;BME280;39115;59.332;18.034;2024-03-02T05:08:09;101214.53;;;4.25;67.53
51715;BME280;39115;59.332;18.034;2024-03-02T05:10:32;101218.00;;;4.26;67.78
51715;BME280;39115;59.332;18.034;2024-03-02T05:12:52;101204.91;;;4.24;67.68
51715;BME280;39115;59.332;18.034;2024-03-02T05:15:17;101209.31;;;4.24;68.10
51715;BME280;39115;59.332;18.034;2024-03-02T05:17:38;101218.19;;;4.23;67.99
51715;BME280;39115;59.332;18.034;2024-03-02T05:19:59;101216.38;;;4.23;67.81
51715;BME280;39115;59.332;18.034;2024-03-02T05:22:20;101212.97;;;4.21;68.18
51715;BME280;39115;59.332;18.034;2024-03-02T05:24:40;101220.81;;;4.23;67.83
51715;BME280;39115;59.332;18.034;2024-03-02T05:27:01;101217.41;;;4.21;67.71
51715;BME280;39115;59.332;18.034;2024-03-02T05:29:21;101209.59;;;4.19;67.66
51715;BME280;39115;59.332;18.034;2024-03-02T05:31:42;101209.59;;;4.19;67.60
51715;BME280;39115;59.332;18.034;2024-03-02T05:34:03;101213.16;;;4.18;67.97
51715;BME280;39115;59.332;18.034;2024-03-02T05:36:23;101215.78;;;4.18;67.96
51715;BME280;39115;59.332;18.034;2024-03-02T05:38:44;101213.22;;;4.17;67.95
51715;BME280;39115;59.332;18.034;2024-03-02T05:41:04;101219.34;;;4.17;67.66
51715;BME280;39115;59.332;18.034;2024-03-02T05:43:25;101214.16;;;4.16;68.01
51715;BME280;39115;59.332;18.034;2024-03-02T05:45:46;101213.31;;;4.15;67.63
51715;BME280;39115;59.332;18.034;2024-03-02T05:48:07;101210.66;;;4.15;67.98
51715;BME280;39115;59.332;18.034;2024-03-02T05:50:28;101216.03;;;4.14;68.00
51715;BME280;39115;59.332;18.034;2024-03-02T05:52:48;101207.25;;;4.13;67.46
51715;BME280;39115;59.332;18.034;2024-03-02T05:55:09;101208.13;;;4.14;68.11
51715;BME280;39115;59.332;18.034;2024-03-02T05:57:29;101219.59;;;4.13;67.68
51715;BME280;39115;59.332;18.034;2024-03-02T06:00:09;101230.22;;;4.11;67.66
51715;BME280;39115;59.332;18.034;2024-03-02T06:02:31;101231.06;;;4.11;67.94
51715;BME280;39115;59.332;18.034;2024-03-02T06:04:54;101233.69;;;4.11;67.91
51715;BME280;39115;59.332;18.034;2024-03-02T06:07:15;101227.63;;;4.09;68.03
51715;BME280;39115;59.332;18.034;2024-03-02T06:09:35;101222.38;;;4.09;67.77
51715;BME280;39115;59.332;18.034;2024-03-02T06:11:56;101231.22;;;4.08;67.89
51715;BME280;39115;59.332;18.034;2024-03-02T06:14:16;101234.81;;;4.07;67.65
51715;BME280;39115;59.332;18.034;2024-03-02T06:16:37;101242.69;;;4.07;68.16
51715;BME280;39115;59.332;18.034;2024-03-02T06:18:58;101251.53;;;4.06;67.62
51715;BME280;39115;59.332;18.034;2024-03-02T06:21:18;101247.09;;;4.07;68.02
51715;BME280;39115;59.332;18.034;2024-03-02T06:23:39;101248.91;;;4.06;68.00
51715;BME280;39115;59.332;18.034;2024-03-02T06:25:59;101244.56;;;4.05;67.96
51715;BME280;39115;59.332;18.034;2024-03-02T06:28:20;101238.41;;;4.05;67.63
51715;BME280;39115;59.332;18.034;2024-03-02T06:30:41;101253.31;;;4.06;67.62
51715;BME280;39115;59.332;18.034;2024-03-02T06:33:03;101262.13;;;4.05;67.83
51715;BME280;39115;59.332;18.034;2024-03-02T06:35:24;101256.03;;;4.04;67.60
51715;BME280;39115;59.332;18.034;2024-03-02T06:37:44;101248.13;;;4.04;67.87
51715;BME280;39115;59.332;18.034;2024-03-02T06:40:06;101251.69;;;4.03;67.54
51715;BME280;39115;59.332;18.034;2024-03-02T06:42:27;101249.91;;;4.04;67.98
51715;BME280;39115;59.332;18.034;2024-03-02T06:44:53;101262.22;;;4.03;68.16
51715;BME280;39115;59.332;18.034;2024-03-02T06:47:14;101249.13;;;4.02;67.98
51715;BME280;39115;59.332;18.034;2024-03-02T06:49:36;101261.38;;;4.03;67.79
51715;BME280;39115;59.332;18.034;2024-03-02T06:51:57;101268.41;;;4.02;67.81
51715;BME280;39115;59.332;18.034;2024-03-02T06:54:17;101278.13;;;4.02;67.87
51715;BME280;39115;59.332;18.034;2024-03-02T06:56:38;101292.22;;;4.01;67.48
51715;BME280;39115;59.332;18.034;2024-03-02T06:58:59;101283.47;;;4.00;67.81
51715;BME280;39115;59.332;18.034;2024-03-02T07:01:20;101278.22;;;4.00;67.64
51715;BME280;39115;59.332;18.034;2024-03-02T07:03:40;101279.03;;;4.01;67.79
51715;BME280;39115;59.332;18.034;2024-03-02T07:06:01;101287.78;;;4.01;68.06
51715;BME280;39115;59.332;18.034;2024-03-02T07:08:21;101286.03;;;4.02;67.99
51715;BME280;39115;59.332;18.034;2024-03-02T07:10:41;101286.94;;;4.01;67.87
51715;BME280;39115;59.332;18.034;2024-03-02T07:13:02;101282.53;;;4.01;67.76
51715;BME280;39115;59.332;18.034;2024-03-02T07:15:23;101296.56;;;4.02;67.97
51715;BME280;39115;59.332;18.034;2024-03-02T07:18:02;101287.78;;;4.01;67.81
51715;BME280;39115;59.332;18.034;2024-03-02T07:20:22;101295.69;;;4.01;67.91
51715;BME280;39115;59.332;18.034;2024-03-02T07:22:43;101285.16;;;4.01;67.79
51715;BME280;39115;59.332;18.034;2024-03-02T07:25:03;101285.16;;;4.01;67.96
51715;BME280;39115;59.332;18.034;2024-03-02T07:27:24;101286.94;;;4.01;67.60
51715;BME280;39115;59.332;18.034;2024-03-02T07:29:45;101280.84;;;4.00;67.63
51715;BME280;39115;59.332;18.034;2024-03-02T07:32:08;101285.16;;;4.01;67.75
51715;BME280;39115;59.332;18.034;2024-03-02T07:34:29;101291.28;;;4.02;67.63
51715;BME280;39115;59.332;18.034;2024-03-02T07:36:49;101289.59;;;4.01;68.06
51715;BME280;39115;59.332;18.034;2024-03-02T07:39:10;101293.00;;;4.03;67.61
51715;BME280;39115;59.332;18.034;2024-03-02T07:41:30;101290.38;;;4.03;67.68
51715;BME280;39115;59.332;18.034;2024-03-02T07:43:51;101291.28;;;4.02;67.61
51715;BME280;39115;59.332;18.034;2024-03-02T07:46:11;101294.72;;;4.04;67.41
51715;BME280;39115;59.332;18.034;2024-03-02T07:48:32;101296.47;;;4.03;67.67
51715;BME280;39115;59.332;18.034;2024-03-02T07:50:52;101293.00;;;4.03;68.10
51715;BME280;39115;59.332;18.034;2024-03-02T07:53:13;101295.63;;;4.03;67.97
51715;BME280;39115;59.332;18.034;2024-03-02T07:55:34;101289.44;;;4.04;68.03
51715;BME280;39115;59.332;18.034;2024-03-02T07:57:55;101281.53;;;4.04;68.11
51715;BME280;39115;59.332;18.034;2024-03-02T08:00:16;101288.47;;;4.05;67.82
51715;BME280;39115;59.332;18.034;2024-03-02T08:02:37;101286.81;;;4.04;67.89
51715;BME280;39115;59.332;18.034;2024-03-02T08:04:57;101302.44;;;4.07;67.80
51715;BME280;39115;59.332;18.034;2024-03-02T08:07:18;101304.22;;;4.06;67.85
51715;BME280;39115;59.332;18.034;2024-03-02T08:09:38;101298.09;;;4.06;68.09
51715;BME280;39115;59.332;18.034;2024-03-02T08:11:59;101307.69;;;4.07;68.03
51715;BME280;39115;59.332;18.034;2024-03-02T08:14:19;101305.94;;;4.07;67.61
51715;BME280;39115;59.332;18.034;2024-03-02T08:16:40;101302.34;;;4.08;67.66
51715;BME280;39115;59.332;18.034;2024-03-02T08:19:01;101298.78;;;4.09;67.70
51715;BME280;39115;59.332;18.034;2024-03-02T08:21:24;101297.03;;;4.10;67.89
51715;BME280;39115;59.332;18.034;2024-03-02T08:23:45;101299.66;;;4.10;67.55
51715;BME280;39115;59.332;18.034;2024-03-02T08:26:05;101301.38;;;4.11;67.93
51715;BME280;39115;59.332;18.034;2024-03-02T08:28:26;101302.19;;;4.11;67.91
51715;BME280;39115;59.332;18.034;2024-03-02T08:30:47;101300.56;;;4.09;67.99
51715;BME280;39115;59.332;18.034;2024-03-02T08:33:07;101308.25;;;4.14;68.03
51715;BME280;39115;59.332;18.034;2024-03-02T08:35:28;101310.88;;;4.14;67.91
51715;BME280;39115;59.332;18.034;2024-03-02T08:37:48;101314.34;;;4.14;67.73
51715;BME280;39115;59.332;18.034;2024-03-02T08:40:09;101317.00;;;4.14;67.72
51715;BME280;39115;59.332;18.034;2024-03-02T08:42:30;101309.09;;;4.14;67.38
51715;BME280;39115;59.332;18.034;2024-03-02T08:44:51;101299.41;;;4.15;67.64
51715;BME280;39115;59.332;18.034;2024-03-02T08:47:12;101305.44;;;4.17;68.14
51715;BME280;39115;59.332;18.034;2024-03-02T08:49:32;101294.91;;;4.17;67.95
51715;BME280;39115;59.332;18.034;2024-03-02T08:51:53;101295.75;;;4.17;67.90
51715;BME280;39115;59.332;18.034;2024-03-02T08:54:17;101293.13;;;4.17;67.80
51715;BME280;39115;59.332;18.034;2024-03-02T08:56:37;101302.75;;;4.18;68.05
51715;BME280;39115;59.332;18.034;2024-03-02T08:58:58;101300.84;;;4.20;67.67
51715;BME280;39115;59.332;18.034;2024-03-02T09:01:19;101300.03;;;4.20;67.61
51715;BME280;39115;59.332;18.034;2024-03-02T09:03:42;101300.03;;;4.20;68.02
51715;BME280;39115;59.332;18.034;2024-03-02T09:06:05;101316.63;;;4.22;67.46
51715;BME280;39115;59.332;18.034;2024-03-02T09:08:26;101316.63;;;4.22;67.56
51715;BME280;39115;59.332;18.034;2024-03-02T09:10:47;101315.69;;;4.23;67.64
51715;BME280;39115;59.332;18.034;2024-03-02T09:13:07;101320.00;;;4.24;67.97
51715;BME280;39115;59.332;18.034;2024-03-02T09:15:28;101317.31;;;4.25;68.01
51715;BME280;39115;59.332;18.034;2024-03-02T09:17:48;101305.91;;;4.25;68.12
51715;BME280;39115;59.332;18.034;2024-03-02T09:20:09;101307.59;;;4.26;67.56
51715;BME280;39115;59.332;18.034;2024-03-02T09:22:30;101303.19;;;4.26;67.86
51715;BME280;39115;59.332;18.034;2024-03-02T09:24:50;101305.75;;;4.28;67.91
51715;BME280;39115;59.332;18.034;2024-03-02T09:27:11;101299.63;;;4.27;67.30
51715;BME280;39115;59.332;18.034;2024-03-02T09:29:32;101302.19;;;4.29;67.62
51715;BME280;39115;59.332;18.034;2024-03-02T09:31:52;101308.28;;;4.30;67.82
51715;BME280;39115;59.332;18.034;2024-03-02T09:34:12;101316.97;;;4.32;67.88
51715;BME280;39115;59.332;18.034;2024-03-02T09:36:34;101314.34;;;4.32;67.94
51715;BME280;39115;59.332;18.034;2024-03-02T09:38:55;101314.25;;;4.33;67.55
51715;BME280;39115;59.332;18.034;2024-03-02T09:41:16;101316.06;;;4.33;67.49
51715;BME280;39115;59.332;18.034;2024-03-02T09:43:36;101325.56;;;4.35;67.47
51715;BME280;39115;59.332;18.034;2024-03-02T09:45:58;101330.00;;;4.35;67.80
51715;BME280;39115;59.332;18.034;2024-03-02T09:48:18;101327.28;;;4.36;67.60
51715;BME280;39115;59.332;18.034;2024-03-02T09:50:40;101323.72;;;4.37;67.79
51715;BME280;39115;59.332;18.034;2024-03-02T09:53:01;101324.56;;;4.38;67.72
51715;BME280;39115;59.332;18.034;2024-03-02T09:55:25;101320.16;;;4.38;67.99
51715;BME280;39115;59.332;18.034;2024-03-02T09:57:46;101321.78;;;4.41;67.57
51715;BME280;39115;59.332;18.034;2024-03-02T10:00:09;101322.63;;;4.41;67.96
51715;BME280;39115;59.332;18.034;2024-03-02T10:02:34;101317.34;;;4.41;67.99
51715;BME280;39115;59.332;18.034;2024-03-02T10:04:55;101318.97;;;4.44;67.60
51715;BME280;39115;59.332;18.034;2024-03-02T10:07:16;101324.16;;;4.46;67.36
51715;BME280;39115;59.332;18.034;2024-03-02T10:09:37;101330.28;;;4.46;67.86
51715;BME280;39115;59.332;18.034;2024-03-02T10:12:04;101326.72;;;4.47;67.32
51715;BME280;39115;59.332;18.034;2024-03-02T10:14:25;101325.78;;;4.48;67.39
51715;BME280;39115;59.332;18.034;2024-03-02T10:16:45;101329.22;;;4.50;67.67
51715;BME280;39115;59.332;18.034;2024-03-02T10:19:18;101325.59;;;4.51;67.55
51715;BME280;39115;59.332;18.034;2024-03-02T10:21:40;101331.75;;;4.52;67.69
51715;BME280;39115;59.332;18.034;2024-03-02T10:24:10;101339.47;;;4.55;67.33
51715;BME280;39115;59.332;18.034;2024-03-02T10:26:30;101330.72;;;4.54;67.84
51715;BME280;39115;59.332;18.034;2024-03-02T10:28:51;101329.81;;;4.55;67.81
51715;BME280;39115;59.332;18.034;2024-03-02T10:31:19;101328.78;;;4.58;67.43
51715;BME280;39115;59.332;18.034;2024-03-02T10:33:40;101321.75;;;4.58;68.00
51715;BME280;39115;59.332;18.034;2024-03-02T10:36:00;101329.56;;;4.60;67.35
51715;BME280;39115;59.332;18.034;2024-03-02T10:38:22;101328.63;;;4.61;67.24
51715;BME280;39115;59.332;18.034;2024-03-02T10:40:47;101333.81;;;4.63;67.94
51715;BME280;39115;59.332;18.034;2024-03-02T10:43:08;101338.06;;;4.65;67.43
51715;BME280;39115;59.332;18.034;2024-03-02T10:45:29;101337.22;;;4.65;67.63
51715;BME280;39115;59.332;18.034;2024-03-02T10:47:50;101335.34;;;4.67;67.88
51715;BME280;39115;59.332;18.034;2024-03-02T10:50:11;101334.41;;;4.68;67.49
51715;BME280;39115;59.332;18.034;2024-03-02T10:52:32;101335.28;;;4.68;67.87
51715;BME280;39115;59.332;18.034;2024-03-02T10:54:52;101331.72;;;4.69;67.74
51715;BME280;39115;59.332;18.034;2024-03-02T10:57:13;101332.56;;;4.70;67.45
51715;BME280;39115;59.332;18.034;2024-03-02T10:59:44;101334.16;;;4.72;67.58
51715;BME280;39115;59.332;18.034;2024-03-02T11:02:09;101332.41;;;4.73;67.63
51715;BME280;39115;59.332;18.034;2024-03-02T11:04:32;101319.22;;;4.73;67.73
51715;BME280;39115;59.332;18.034;2024-03-02T11:06:59;101319.13;;;4.74;67.85
51715;BME280;39115;59.332;18.034;2024-03-02T11:09:26;101315.56;;;4.75;68.00
51715;BME280;39115;59.332;18.034;2024-03-02T11:12:10;101324.25;;;4.78;67.81
51715;BME280;39115;59.332;18.034;2024-03-02T11:14:33;101322.53;;;4.77;67.31
51715;BME280;39115;59.332;18.034;2024-03-02T11:16:54;101321.59;;;4.78;67.23
51715;BME280;39115;59.332;18.034;2024-03-02T11:19:16;101313.59;;;4.79;67.39
51715;BME280;39115;59.332;18.034;2024-03-02T11:21:37;101319.66;;;4.81;67.80
51715;BME280;39115;59.332;18.034;2024-03-02T11:23:58;101314.28;;;4.83;67.60
51715;BME280;39115;59.332;18.034;2024-03-02T11:26:22;101322.09;;;4.84;67.50
51715;BME280;39115;59.332;18.034;2024-03-02T11:28:44;101313.34;;;4.84;67.48
51715;BME280;39115;59.332;18.034;2024-03-02T11:31:05;101319.41;;;4.86;67.56
51715;BME280;39115;59.332;18.034;2024-03-02T11:33:26;101309.69;;;4.86;67.42
51715;BME280;39115;59.332;18.034;2024-03-02T11:35:49;101316.56;;;4.89;67.93
51715;BME280;39115;59.332;18.034;2024-03-02T11:38:10;101314.81;;;4.89;67.60
51715;BME280;39115;59.332;18.034;2024-03-02T11:40:31;101320.00;;;4.91;67.18
51715;BME280;39115;59.332;18.034;2024-03-02T11:42:52;101313.84;;;4.90;67.43
51715;BME280;39115;59.332;18.034;2024-03-02T11:45:17;101319.06;;;4.92;67.56
51715;BME280;39115;59.332;18.034;2024-03-02T11:47:37;101319.81;;;4.94;67.35
51715;BME280;39115;59.332;18.034;2024-03-02T11:49:58;101326.78;;;4.95;67.51
51715;BME280;39115;59.332;18.034;2024-03-02T11:52:19;101338.22;;;4.96;67.86
51715;BME280;39115;59.332;18.034;2024-03-02T11:54:41;101324.09;;;4.97;67.84
51715;BME280;39115;59.332;18.034;2024-03-02T11:57:15;101321.34;;;4.98;67.24
51715;BME280;39115;59.332;18.034;2024-03-02T11:59:36;101328.34;;;4.99;67.20
51715;BME280;39115;59.332;18.034;2024-03-02T12:01:58;101316.84;;;5.00;67.76
51715;BME280;39115;59.332;18.034;2024-03-02T12:04:18;101310.66;;;5.01;67.15
51715;BME280;39115;59.332;18.034;2024-03-02T12:06:40;101326.38;;;5.03;67.79
51715;BME280;39115;59.332;18.034;2024-03-02T12:09:03;101323.66;;;5.04;67.80
51715;BME280;39115;59.332;18.034;2024-03-02T12:11:24;101319.25;;;5.05;67.31
51715;BME280;39115;59.332;18.034;2024-03-02T12:13:52;101330.53;;;5.07;67.68
51715;BME280;39115;59.332;18.034;2024-03-02T12:16:23;101324.31;;;5.08;67.15
51715;BME280;39115;59.332;18.034;2024-03-02T12:18:44;101319.91;;;5.09;67.57
51715;BME280;39115;59.332;18.034;2024-03-02T12:21:04;101324.25;;;5.10;67.58
51715;BME280;39115;59.332;18.034;2024-03-02T12:23:29;101329.44;;;5.11;67.30